Time;durP1;ratioP1;P1;durP2;ratioP2;P2;SDS_P1;SDS_P2;PMS_P1;PMS_P2;Temp;Humidity;BMP_temperature;BMP_pressure;BME280_temperature;BME280_humidity;BME280_pressure;Samples;Min_cycle;Max_cycle;Signal;HPM_P1;HPM_P2
2021/01/12 00:01:42;;;;;;;22.60;10.40;;;1.90;64.20;;;;;;5048727;28;19915;-69
2021/01/12 00:04:08;;;;;;;16.80;8.30;;;1.80;64.20;;;;;;5042232;28;20034;-68
2021/01/12 00:06:34;;;;;;;18.98;9.43;;;1.80;64.30;;;;;;5038749;28;20036;-68
2021/01/12 00:08:59;;;;;;;20.73;9.93;;;1.80;64.50;;;;;;5036037;28;20037;-68
2021/01/12 00:11:25;;;;;;;17.60;8.98;;;1.70;64.50;;;;;;5038037;28;20079;-69
2021/01/12 00:13:51;;;;;;;15.25;9.30;;;1.70;64.50;;;;;;5047554;28;20117;-69
2021/01/12 00:16:20;;;;;;;15.32;8.07;;;1.60;64.80;;;;;;5050492;28;20114;-68
2021/01/12 00:18:47;;;;;;;15.82;7.95;;;1.60;65.00;;;;;;5043158;28;20036;-68
2021/01/12 00:21:16;;;;;;;27.40;12.07;;;1.60;65.10;;;;;;5048075;28;20029;-68
2021/01/12 00:23:42;;;;;;;33.80;14.38;;;1.70;65.20;;;;;;5044141;28;20031;-69
2021/01/12 00:26:08;;;;;;;23.63;11.05;;;1.70;65.20;;;;;;5045279;28;20208;-68
2021/01/12 00:28:35;;;;;;;20.70;11.20;;;1.70;65.40;;;;;;5051961;28;20028;-68
2021/01/12 00:31:03;;;;;;;21.60;12.60;;;1.70;65.50;;;;;;5052236;28;20029;-68
2021/01/12 00:33:30;;;;;;;26.15;13.68;;;1.80;65.40;;;;;;5049686;28;20112;-68
2021/01/12 00:35:56;;;;;;;29.88;14.30;;;1.80;65.40;;;;;;5040815;28;20083;-69
2021/01/12 00:38:21;;;;;;;32.58;15.98;;;1.80;65.40;;;;;;5039970;28;20030;-68
2021/01/12 00:40:47;;;;;;;31.13;14.57;;;1.80;65.40;;;;;;5050141;28;20041;-68
2021/01/12 00:43:13;;;;;;;27.98;14.38;;;1.80;65.40;;;;;;5050209;28;20123;-68
2021/01/12 00:45:38;;;;;;;26.45;14.43;;;1.80;65.60;;;;;;5050072;28;20025;-68
2021/01/12 00:48:04;;;;;;;19.95;8.38;;;1.80;65.60;;;;;;5040275;28;20398;-68
2021/01/12 00:50:30;;;;;;;21.25;10.55;;;1.80;65.50;;;;;;5050087;28;20041;-68
2021/01/12 00:52:56;;;;;;;17.20;8.57;;;1.80;65.60;;;;;;5038306;28;20036;-68
2021/01/12 00:55:21;;;;;;;21.38;11.23;;;1.80;65.60;;;;;;5035746;28;20034;-69
2021/01/12 00:57:47;;;;;;;17.02;9.73;;;1.70;65.60;;;;;;5048200;28;20470;-69
2021/01/12 01:00:13;;;;;;;27.17;11.88;;;1.70;65.70;;;;;;5035148;28;20075;-69
2021/01/12 01:02:39;;;;;;;16.35;8.43;;;1.70;65.70;;;;;;5049940;28;20025;-68
2021/01/12 01:05:05;;;;;;;27.48;12.07;;;1.70;65.60;;;;;;5040767;28;20025;-68
2021/01/12 01:07:32;;;;;;;19.48;9.70;;;1.70;65.60;;;;;;5038205;28;20356;-68
2021/01/12 01:09:58;;;;;;;29.60;12.75;;;1.70;65.80;;;;;;5039040;28;20029;-69
2021/01/12 01:12:23;;;;;;;21.33;9.93;;;1.70;65.90;;;;;;5044742;28;20032;-68
2021/01/12 01:14:49;;;;;;;23.13;10.07;;;1.70;66.00;;;;;;5045147;28;20029;-68
2021/01/12 01:17:15;;;;;;;22.73;9.93;;;1.70;65.90;;;;;;5048990;28;20044;-68
2021/01/12 01:19:40;;;;;;;17.92;7.63;;;1.80;66.10;;;;;;5047318;28;20024;-67
2021/01/12 01:22:06;;;;;;;16.33;8.40;;;1.80;66.10;;;;;;5035978;28;20027;-68
2021/01/12 01:24:32;;;;;;;14.27;7.03;;;1.80;66.00;;;;;;5038618;28;20036;-68
2021/01/12 01:26:58;;;;;;;21.00;9.50;;;1.80;65.90;;;;;;5046090;28;20032;-69
2021/01/12 01:29:24;;;;;;;16.23;7.68;;;1.70;65.90;;;;;;5042163;28;20040;-68
2021/01/12 01:31:50;;;;;;;16.35;7.15;;;1.80;66.00;;;;;;5050454;28;20083;-68
2021/01/12 01:34:15;;;;;;;9.40;5.75;;;1.80;66.00;;;;;;5051742;28;20025;-69
2021/01/12 01:36:41;;;;;;;13.50;6.38;;;1.80;65.60;;;;;;5037689;28;20033;-69
2021/01/12 01:39:07;;;;;;;11.80;6.72;;;1.80;65.70;;;;;;5043773;28;20472;-68
2021/01/12 01:41:33;;;;;;;10.60;6.30;;;1.80;65.70;;;;;;5045779;28;20416;-69
2021/01/12 01:43:58;;;;;;;10.20;6.03;;;1.80;65.50;;;;;;5050654;28;20036;-69
2021/01/12 01:46:24;;;;;;;11.82;6.00;;;1.80;65.50;;;;;;5043725;28;20033;-67
2021/01/12 01:48:51;;;;;;;16.00;6.90;;;1.80;65.40;;;;;;5042318;28;20486;-68
2021/01/12 01:51:17;;;;;;;14.45;7.40;;;1.80;65.30;;;;;;5045512;28;20383;-68
2021/01/12 01:53:43;;;;;;;12.73;6.20;;;1.80;64.80;;;;;;5051724;28;20029;-68
2021/01/12 01:56:09;;;;;;;13.57;7.65;;;1.80;64.20;;;;;;5049169;28;20450;-69
2021/01/12 01:58:41;;;;;;;14.77;7.18;;;1.80;64.10;;;;;;5043947;28;20029;-68
2021/01/12 02:01:11;;;;;;;16.52;7.65;;;1.70;64.10;;;;;;5049960;28;20111;-68
2021/01/12 02:03:58;;;;;;;16.10;8.32;;;1.70;64.30;;;;;;5049834;28;20029;-68
2021/01/12 02:06:32;;;;;;;15.45;8.20;;;1.70;64.50;;;;;;5036246;28;20047;-68
2021/01/12 02:09:19;;;;;;;12.85;7.07;;;1.70;64.50;;;;;;5048345;28;20056;-67
2021/01/12 02:11:52;;;;;;;13.95;7.13;;;1.70;64.60;;;;;;5050745;28;20057;-68
2021/01/12 02:14:20;;;;;;;12.82;7.30;;;1.70;64.50;;;;;;5047432;28;20113;-68
2021/01/12 02:16:47;;;;;;;12.50;6.40;;;1.70;64.40;;;;;;5043037;28;20041;-68
2021/01/12 02:19:21;;;;;;;12.23;6.70;;;1.60;64.30;;;;;;5037533;28;20028;-68
2021/01/12 02:21:49;;;;;;;13.60;6.40;;;1.60;64.10;;;;;;5044098;28;20032;-68
2021/01/12 02:24:16;;;;;;;15.30;6.68;;;1.60;64.10;;;;;;5050347;28;20029;-68
2021/01/12 02:26:42;;;;;;;13.52;6.55;;;1.60;64.10;;;;;;5047154;28;20040;-68
2021/01/12 02:29:08;;;;;;;11.15;5.97;;;1.70;64.10;;;;;;5041049;28;20387;-68
2021/01/12 02:31:34;;;;;;;14.00;7.03;;;1.70;64.20;;;;;;5033755;28;20021;-68
2021/01/12 02:34:05;;;;;;;17.88;8.13;;;1.60;64.20;;;;;;5033373;28;20026;-68
2021/01/12 02:36:33;;;;;;;15.63;7.72;;;1.60;64.20;;;;;;5034614;28;20065;-68
2021/01/12 02:39:00;;;;;;;15.10;7.15;;;1.60;64.20;;;;;;5035486;28;20025;-69
2021/01/12 02:41:33;;;;;;;12.23;6.32;;;1.60;64.20;;;;;;5036037;28;20050;-68
2021/01/12 02:44:00;;;;;;;13.45;7.30;;;1.60;64.10;;;;;;5035587;28;20041;-68
2021/01/12 02:46:26;;;;;;;11.20;6.35;;;1.60;64.20;;;;;;5035759;28;20054;-69
2021/01/12 02:48:52;;;;;;;13.50;6.05;;;1.60;64.40;;;;;;5036086;28;20025;-71
2021/01/12 02:51:17;;;;;;;12.75;6.78;;;1.60;64.40;;;;;;5036273;28;20036;-70
2021/01/12 02:53:43;;;;;;;12.65;6.50;;;1.60;64.50;;;;;;5042017;28;21401;-70
2021/01/12 02:56:09;;;;;;;11.13;6.32;;;1.60;64.50;;;;;;5038560;28;20911;-70
2021/01/12 02:58:35;;;;;;;10.77;6.32;;;1.60;64.40;;;;;;5039673;28;20032;-70
2021/01/12 03:01:01;;;;;;;12.90;6.45;;;1.50;64.40;;;;;;5037806;28;20055;-70
2021/01/12 03:03:27;;;;;;;13.50;6.88;;;1.40;64.30;;;;;;5044385;28;20025;-68
2021/01/12 03:05:53;;;;;;;12.13;6.65;;;1.40;64.20;;;;;;5041911;28;20037;-70
2021/01/12 03:08:20;;;;;;;14.95;7.07;;;1.40;64.30;;;;;;5044092;28;20029;-70
2021/01/12 03:10:46;;;;;;;12.80;7.20;;;1.40;64.00;;;;;;5045258;28;20037;-70
2021/01/12 03:13:15;;;;;;;10.77;5.75;;;1.40;63.80;;;;;;5050183;28;20537;-70
2021/01/12 03:15:41;;;;;;;12.88;6.75;;;1.40;63.70;;;;;;5047510;28;20032;-70
2021/01/12 03:18:07;;;;;;;11.55;6.68;;;1.40;63.40;;;;;;5036509;28;20395;-70
2021/01/12 03:20:33;;;;;;;11.90;6.65;;;1.50;63.40;;;;;;5047174;28;20053;-70
2021/01/12 03:23:00;;;;;;;13.20;7.25;;;1.50;63.40;;;;;;5046107;28;20471;-70
2021/01/12 03:25:26;;;;;;;14.77;7.22;;;1.50;63.40;;;;;;5050697;28;20044;-70
2021/01/12 03:27:52;;;;;;;14.23;7.05;;;1.50;63.50;;;;;;5046731;28;20032;-70
2021/01/12 03:30:18;;;;;;;16.23;8.52;;;1.50;63.60;;;;;;5050320;28;20017;-70
2021/01/12 03:32:44;;;;;;;16.42;7.78;;;1.50;63.60;;;;;;5053279;28;20356;-70
2021/01/12 03:35:10;;;;;;;23.75;11.85;;;1.50;63.50;;;;;;5043296;28;20120;-70
2021/01/12 03:37:37;;;;;;;25.30;11.77;;;1.50;63.50;;;;;;5051188;28;20068;-70
2021/01/12 03:40:05;;;;;;;30.35;12.40;;;1.50;63.50;;;;;;5051275;28;20152;-70
2021/01/12 03:42:31;;;;;;;31.52;13.60;;;1.50;63.60;;;;;;5050957;28;20033;-70
2021/01/12 03:44:56;;;;;;;33.70;14.90;;;1.60;63.70;;;;;;5045551;28;20030;-71
2021/01/12 03:47:22;;;;;;;63.97;23.77;;;1.60;63.70;;;;;;5052062;28;20048;-69
2021/01/12 03:49:48;;;;;;;66.40;23.40;;;1.60;63.80;;;;;;5045993;28;20021;-69
2021/01/12 03:52:14;;;;;;;28.38;11.68;;;1.60;64.00;;;;;;5038352;28;20108;-70
2021/01/12 03:54:40;;;;;;;35.55;13.57;;;1.60;63.90;;;;;;5052884;28;20029;-70
2021/01/12 03:57:05;;;;;;;26.08;11.23;;;1.70;64.00;;;;;;5047688;28;20060;-70
2021/01/12 03:59:31;;;;;;;30.60;12.98;;;1.60;63.90;;;;;;5041245;28;20033;-70
2021/01/12 04:01:57;;;;;;;29.65;12.88;;;1.60;64.10;;;;;;5047463;28;20024;-70
2021/01/12 04:04:23;;;;;;;17.75;8.75;;;1.60;64.30;;;;;;5047204;28;20036;-70
2021/01/12 04:06:49;;;;;;;19.08;9.15;;;1.60;64.40;;;;;;5051725;28;20029;-70
2021/01/12 04:09:14;;;;;;;21.35;10.07;;;1.60;64.20;;;;;;5048270;28;20029;-71
2021/01/12 04:11:40;;;;;;;22.10;10.43;;;1.60;64.10;;;;;;5046670;28;20025;-68
2021/01/12 04:14:06;;;;;;;26.38;12.38;;;1.50;64.30;;;;;;5054432;28;20498;-68
2021/01/12 04:16:33;;;;;;;26.95;12.48;;;1.50;64.50;;;;;;5043039;28;20067;-67
2021/01/12 04:18:59;;;;;;;30.30;12.80;;;1.50;64.50;;;;;;5048504;28;20037;-67
2021/01/12 04:21:25;;;;;;;27.25;12.65;;;1.50;64.60;;;;;;5052621;28;20029;-66
2021/01/12 04:23:50;;;;;;;41.92;16.75;;;1.60;64.50;;;;;;5049278;28;20116;-68
2021/01/12 04:26:16;;;;;;;36.38;15.93;;;1.60;64.50;;;;;;5040871;28;20036;-67
2021/01/12 04:28:42;;;;;;;25.52;12.55;;;1.60;64.60;;;;;;5053184;28;20025;-67
2021/01/12 04:31:08;;;;;;;20.85;9.68;;;1.60;64.70;;;;;;5047558;28;20028;-68
2021/01/12 04:33:34;;;;;;;23.70;9.68;;;1.60;65.30;;;;;;5053878;28;20041;-68
2021/01/12 04:36:00;;;;;;;20.38;9.80;;;1.60;64.60;;;;;;5044171;28;20064;-68
2021/01/12 04:38:25;;;;;;;23.27;10.45;;;1.60;64.60;;;;;;5045888;28;20040;-67
2021/01/12 04:40:51;;;;;;;25.27;11.77;;;1.60;64.60;;;;;;5052122;28;20415;-68
2021/01/12 04:43:17;;;;;;;22.67;11.13;;;1.60;64.40;;;;;;5047641;28;20029;-68
2021/01/12 04:45:43;;;;;;;20.75;10.48;;;1.50;64.30;;;;;;5051670;28;20525;-68
2021/01/12 04:48:09;;;;;;;39.00;15.05;;;1.50;64.50;;;;;;5051046;28;20078;-68
2021/01/12 04:50:35;;;;;;;30.95;12.75;;;1.40;64.30;;;;;;5046120;28;20035;-68
2021/01/12 04:53:00;;;;;;;18.75;9.70;;;1.40;64.30;;;;;;5041797;28;20029;-68
2021/01/12 04:55:26;;;;;;;20.20;9.57;;;1.40;64.40;;;;;;5041042;28;20025;-68
2021/01/12 04:57:52;;;;;;;16.45;8.95;;;1.40;64.50;;;;;;5039723;28;20044;-69
2021/01/12 05:00:28;;;;;;;19.85;9.20;;;1.40;64.60;;;;;;5042127;28;20116;-68
2021/01/12 05:03:02;;;;;;;20.30;9.68;;;1.40;64.80;;;;;;5046351;28;20028;-68
2021/01/12 05:05:36;;;;;;;19.50;9.38;;;1.50;64.80;;;;;;5049253;28;20422;-68
2021/01/12 05:08:04;;;;;;;18.88;8.55;;;1.40;64.80;;;;;;5045260;28;20040;-72
2021/01/12 05:10:36;;;;;;;21.23;10.85;;;1.40;64.40;;;;;;5031750;28;20034;-68
2021/01/12 05:13:05;;;;;;;23.27;10.15;;;1.30;64.50;;;;;;5037753;28;20028;-68
2021/01/12 05:15:31;;;;;;;23.20;10.50;;;1.30;64.60;;;;;;5045611;28;20129;-67
2021/01/12 05:18:00;;;;;;;21.60;9.38;;;1.30;64.50;;;;;;5043633;28;20162;-68
2021/01/12 05:20:27;;;;;;;19.55;9.57;;;1.20;64.60;;;;;;5043408;28;20031;-68
2021/01/12 05:23:10;;;;;;;16.75;8.65;;;1.20;64.70;;;;;;5043980;28;20091;-73
2021/01/12 05:25:40;;;;;;;14.13;6.82;;;1.20;64.60;;;;;;5037224;28;20026;-68
2021/01/12 05:28:12;;;;;;;16.05;8.38;;;1.20;64.20;;;;;;5042520;28;20033;-68
2021/01/12 05:30:39;;;;;;;17.05;9.05;;;1.20;63.70;;;;;;5043514;28;20088;-67
2021/01/12 05:33:05;;;;;;;24.00;9.80;;;1.10;63.60;;;;;;5048150;28;20029;-68
2021/01/12 05:35:34;;;;;;;23.45;10.07;;;1.10;63.80;;;;;;5051862;28;20027;-67
2021/01/12 05:38:08;;;;;;;21.55;11.48;;;1.10;64.10;;;;;;5045578;28;20025;-69
2021/01/12 05:40:38;;;;;;;16.38;7.78;;;1.10;64.40;;;;;;5034075;28;20057;-68
2021/01/12 05:43:12;;;;;;;23.88;11.10;;;1.10;64.20;;;;;;5048474;28;20029;-67
2021/01/12 05:45:42;;;;;;;22.38;9.40;;;1.00;65.00;;;;;;5043708;28;20104;-68
2021/01/12 05:48:09;;;;;;;11.73;6.20;;;1.00;64.50;;;;;;5045268;28;20025;-68
2021/01/12 05:50:36;;;;;;;19.17;8.45;;;1.00;64.20;;;;;;5048338;28;20383;-69
2021/01/12 05:53:07;;;;;;;24.42;9.93;;;0.90;64.00;;;;;;5050303;28;20116;-68
2021/01/12 05:55:38;;;;;;;22.42;10.98;;;0.90;64.30;;;;;;5043321;28;20029;-69
2021/01/12 05:58:28;;;;;;;25.17;12.65;;;1.00;64.70;;;;;;5037379;28;20045;-68
2021/01/12 06:00:55;;;;;;;19.30;9.68;;;1.00;64.80;;;;;;5042101;28;20025;-67
2021/01/12 06:03:24;;;;;;;24.15;9.98;;;1.00;64.70;;;;;;5052720;28;20081;-70
2021/01/12 06:05:50;;;;;;;20.88;9.93;;;1.00;64.80;;;;;;5044749;28;20021;-74
2021/01/12 06:08:16;;;;;;;20.40;9.93;;;1.00;64.90;;;;;;5042568;28;20387;-71
2021/01/12 06:10:45;;;;;;;21.45;10.35;;;1.00;65.00;;;;;;5047247;28;20187;-69
2021/01/12 06:13:16;;;;;;;23.75;9.27;;;1.00;64.90;;;;;;5045771;28;20464;-68
2021/01/12 06:15:44;;;;;;;23.42;11.27;;;1.10;64.90;;;;;;5041107;28;20044;-68
2021/01/12 06:18:16;;;;;;;25.67;10.02;;;1.10;65.20;;;;;;5046300;28;20044;-66
2021/01/12 06:20:44;;;;;;;17.88;9.13;;;1.10;65.10;;;;;;5045938;28;20468;-72
2021/01/12 06:23:21;;;;;;;19.17;7.97;;;1.10;65.10;;;;;;5039426;28;20036;-70
2021/01/12 06:25:47;;;;;;;17.55;7.85;;;1.10;64.80;;;;;;5047121;28;20024;-77
2021/01/12 06:28:13;;;;;;;13.88;5.88;;;1.10;64.40;;;;;;5038259;28;20118;-67
2021/01/12 06:30:38;;;;;;;12.30;5.88;;;1.10;63.50;;;;;;5042718;28;20061;-67
2021/01/12 06:33:04;;;;;;;12.30;5.75;;;1.00;62.90;;;;;;5053409;28;20112;-68
2021/01/12 06:35:37;;;;;;;11.48;6.00;;;1.00;63.00;;;;;;5053631;28;20418;-68
2021/01/12 06:38:07;;;;;;;14.93;7.85;;;1.00;62.80;;;;;;5054899;28;20434;-68
2021/01/12 06:40:34;;;;;;;34.95;11.18;;;1.10;63.10;;;;;;5042297;28;20071;-68
2021/01/12 06:43:01;;;;;;;15.68;8.10;;;1.10;63.40;;;;;;5055270;28;20079;-68
2021/01/12 06:45:29;;;;;;;16.83;8.57;;;1.10;63.50;;;;;;5056433;28;20470;-69
2021/01/12 06:47:54;;;;;;;19.92;8.82;;;1.10;63.60;;;;;;5054831;28;20418;-68
2021/01/12 06:50:24;;;;;;;21.17;10.38;;;1.20;63.20;;;;;;5055934;28;20028;-68
2021/01/12 06:52:51;;;;;;;27.85;11.13;;;1.20;62.90;;;;;;5056112;28;20079;-67
2021/01/12 06:55:19;;;;;;;20.45;9.77;;;1.10;63.00;;;;;;5056099;28;20041;-68
2021/01/12 06:57:47;;;;;;;23.48;9.75;;;1.10;63.20;;;;;;5054964;28;20439;-68
2021/01/12 07:00:14;;;;;;;26.00;10.75;;;1.10;63.40;;;;;;5055689;28;20537;-68
2021/01/12 07:02:40;;;;;;;28.42;11.95;;;1.10;63.80;;;;;;5042527;28;20017;-68
2021/01/12 07:05:09;;;;;;;24.55;11.68;;;1.10;63.80;;;;;;5055817;28;20040;-68
2021/01/12 07:07:38;;;;;;;53.85;22.90;;;1.10;63.80;;;;;;5055604;28;20021;-67
2021/01/12 07:10:10;;;;;;;40.90;17.73;;;1.10;64.00;;;;;;5055773;28;20032;-68
2021/01/12 07:12:37;;;;;;;56.08;25.65;;;1.10;63.70;;;;;;5054456;28;20078;-68
2021/01/12 07:15:08;;;;;;;55.35;21.58;;;1.10;63.60;;;;;;5055942;28;20186;-68
2021/01/12 07:17:41;;;;;;;48.13;18.30;;;1.10;63.60;;;;;;5055583;28;20041;-68
2021/01/12 07:20:15;;;;;;;99.80;32.05;;;1.10;63.40;;;;;;5054012;28;20044;-68
2021/01/12 07:22:52;;;;;;;117.30;38.10;;;1.10;63.50;;;;;;5055007;28;20383;-68
2021/01/12 07:25:26;;;;;;;59.67;21.65;;;1.10;63.40;;;;;;5042194;28;20482;-68
2021/01/12 07:28:08;;;;;;;114.25;35.42;;;1.20;63.60;;;;;;5054255;28;20029;-68
2021/01/12 07:30:36;;;;;;;41.53;17.13;;;1.20;63.60;;;;;;5042227;28;20082;-69
2021/01/12 07:33:08;;;;;;;68.85;25.13;;;1.30;63.30;;;;;;5055386;28;20029;-68
2021/01/12 07:35:35;;;;;;;34.53;15.23;;;1.20;63.40;;;;;;5054955;28;20048;-68
2021/01/12 07:38:01;;;;;;;43.00;16.20;;;1.30;63.60;;;;;;5054106;28;20040;-68
2021/01/12 07:40:29;;;;;;;28.08;12.43;;;1.30;63.30;;;;;;5054987;28;20116;-68
2021/01/12 07:43:00;;;;;;;28.35;12.05;;;1.30;63.20;;;;;;5055170;28;20036;-68
2021/01/12 07:45:28;;;;;;;47.38;18.67;;;1.30;63.40;;;;;;5054952;28;20032;-68
2021/01/12 07:47:59;;;;;;;32.95;15.02;;;1.40;63.80;;;;;;5053885;28;20387;-68
2021/01/12 07:50:27;;;;;;;23.40;9.02;;;1.40;63.90;;;;;;5054891;28;20348;-68
2021/01/12 07:52:53;;;;;;;37.85;13.05;;;1.50;63.70;;;;;;5055246;28;20048;-68
2021/01/12 07:55:19;;;;;;;22.50;10.57;;;1.60;62.80;;;;;;5055271;28;20025;-69
2021/01/12 07:57:47;;;;;;;45.60;20.15;;;1.60;62.60;;;;;;5054763;28;20037;-68
2021/01/12 08:00:14;;;;;;;25.73;13.05;;;1.70;62.60;;;;;;5054903;28;20033;-68
2021/01/12 08:02:43;;;;;;;40.22;18.75;;;1.70;62.30;;;;;;5039885;28;20032;-68
2021/01/12 08:05:11;;;;;;;25.40;12.88;;;1.80;62.50;;;;;;5054759;28;20035;-69
2021/01/12 08:07:37;;;;;;;40.67;20.88;;;1.90;62.40;;;;;;5054918;28;20032;-68
2021/01/12 08:10:06;;;;;;;29.70;15.43;;;2.10;62.40;;;;;;5054547;28;20360;-69
2021/01/12 08:12:32;;;;;;;29.90;15.50;;;2.30;62.30;;;;;;5054407;28;20360;-69
2021/01/12 08:15:09;;;;;;;29.30;15.07;;;2.50;62.50;;;;;;5054928;28;20056;-68
2021/01/12 08:17:35;;;;;;;11.18;6.50;;;3.00;62.70;;;;;;5053253;28;20471;-69
2021/01/12 08:20:05;;;;;;;15.98;8.52;;;3.70;62.90;;;;;;5054218;28;20032;-69
2021/01/12 08:22:31;;;;;;;22.13;11.40;;;4.80;62.50;;;;;;5053111;28;20032;-69
2021/01/12 08:25:04;;;;;;;13.90;7.72;;;5.80;61.40;;;;;;5053142;28;20032;-68
2021/01/12 08:27:30;;;;;;;14.23;7.53;;;6.70;58.70;;;;;;5054449;28;20029;-69
2021/01/12 08:30:08;;;;;;;14.60;8.60;;;7.10;55.80;;;;;;5052665;28;20036;-68
2021/01/12 08:32:39;;;;;;;16.40;8.93;;;7.40;55.00;;;;;;5054319;28;20112;-69
2021/01/12 08:35:10;;;;;;;15.25;9.32;;;7.80;53.90;;;;;;5054340;28;20024;-69
2021/01/12 08:37:40;;;;;;;17.90;10.55;;;8.10;52.90;;;;;;5054118;28;20104;-69
2021/01/12 08:40:08;;;;;;;34.85;17.48;;;8.70;53.30;;;;;;5054204;28;20057;-69
2021/01/12 08:42:39;;;;;;;18.88;10.30;;;9.30;51.10;;;;;;5054097;28;20052;-69
2021/01/12 08:45:23;;;;;;;25.70;12.82;;;9.50;49.90;;;;;;5053696;28;20027;-69
2021/01/12 08:47:51;;;;;;;24.02;12.50;;;9.60;48.60;;;;;;5053526;28;20075;-73
2021/01/12 08:50:17;;;;;;;75.47;34.95;;;9.60;48.00;;;;;;5053837;28;20374;-68
2021/01/12 08:52:50;;;;;;;13.90;7.88;;;9.40;47.40;;;;;;5052809;28;20082;-70
2021/01/12 08:55:20;;;;;;;15.60;8.55;;;8.90;45.70;;;;;;5052467;28;20040;-69
2021/01/12 08:58:00;;;;;;;22.95;11.98;;;8.20;45.10;;;;;;5053832;28;20045;-69
2021/01/12 09:00:27;;;;;;;29.77;14.23;;;7.40;45.90;;;;;;5052080;28;20021;-69
2021/01/12 09:02:54;;;;;;;22.65;11.52;;;6.80;47.10;;;;;;5052580;28;20025;-69
2021/01/12 09:05:20;;;;;;;15.90;8.85;;;6.50;48.20;;;;;;5053793;28;20025;-70
2021/01/12 09:07:46;;;;;;;17.38;10.25;;;6.40;48.40;;;;;;5053814;28;20083;-69
2021/01/12 09:10:12;;;;;;;18.98;10.90;;;6.30;48.80;;;;;;5053334;28;20109;-69
2021/01/12 09:12:42;;;;;;;32.70;16.38;;;6.50;49.20;;;;;;5053403;28;20091;-70
2021/01/12 09:15:07;;;;;;;44.03;21.80;;;6.30;48.70;;;;;;5053707;28;20021;-68
2021/01/12 09:17:33;;;;;;;43.38;18.60;;;6.10;48.30;;;;;;5053362;28;20039;-69
2021/01/12 09:19:59;;;;;;;62.45;26.55;;;5.60;48.40;;;;;;5053143;28;20036;-69
2021/01/12 09:22:29;;;;;;;33.90;15.50;;;5.30;48.80;;;;;;5053194;28;20075;-69
2021/01/12 09:24:57;;;;;;;37.53;16.65;;;5.00;49.40;;;;;;5053148;28;20028;-68
2021/01/12 09:27:28;;;;;;;32.70;14.20;;;4.80;50.10;;;;;;5051747;28;20071;-69
2021/01/12 09:29:55;;;;;;;17.50;9.52;;;4.50;50.30;;;;;;5051479;28;20032;-68
2021/01/12 09:32:32;;;;;;;21.83;10.93;;;4.40;51.00;;;;;;5052219;28;20036;-69
2021/01/12 09:34:58;;;;;;;19.05;9.20;;;4.30;51.20;;;;;;5051662;28;20043;-69
2021/01/12 09:37:24;;;;;;;33.70;14.10;;;4.10;51.00;;;;;;5052873;28;20037;-68
2021/01/12 09:40:00;;;;;;;20.10;8.50;;;3.90;51.20;;;;;;5052085;28;20048;-70
2021/01/12 09:42:28;;;;;;;30.38;13.50;;;3.60;51.40;;;;;;5053254;28;20025;-68
2021/01/12 09:44:55;;;;;;;56.45;20.90;;;3.50;51.70;;;;;;5053194;28;20029;-69
2021/01/12 09:47:22;;;;;;;14.95;7.47;;;3.40;51.90;;;;;;5039461;28;20036;-68
2021/01/12 09:49:48;;;;;;;23.77;10.05;;;3.20;51.80;;;;;;5051736;28;20032;-68
2021/01/12 09:52:16;;;;;;;35.30;14.10;;;3.00;51.60;;;;;;5052643;28;20021;-68
2021/01/12 09:54:45;;;;;;;47.75;18.95;;;2.90;52.10;;;;;;5053103;28;20036;-68
2021/01/12 09:57:14;;;;;;;27.83;11.40;;;2.80;52.30;;;;;;5051417;28;20056;-68
2021/01/12 09:59:40;;;;;;;51.47;18.45;;;2.80;52.70;;;;;;5052981;28;20025;-68
2021/01/12 10:02:08;;;;;;;82.45;29.95;;;2.80;53.10;;;;;;5052811;28;20033;-67
2021/01/12 10:04:33;;;;;;;48.22;16.85;;;2.90;53.50;;;;;;5051538;28;20037;-68
2021/01/12 10:07:00;;;;;;;27.58;12.32;;;3.00;53.60;;;;;;5051256;28;20123;-68
2021/01/12 10:09:27;;;;;;;25.20;11.68;;;3.10;53.50;;;;;;5051446;28;20030;-68
2021/01/12 10:11:54;;;;;;;21.70;10.23;;;3.20;53.30;;;;;;5052640;28;20025;-69
2021/01/12 10:14:20;;;;;;;24.80;11.75;;;3.20;53.40;;;;;;5051387;28;20221;-68
2021/01/12 10:16:47;;;;;;;39.78;18.60;;;3.20;53.10;;;;;;5052645;28;20033;-69
2021/01/12 10:19:14;;;;;;;18.15;9.68;;;3.10;53.30;;;;;;5051117;28;20029;-69
2021/01/12 10:21:39;;;;;;;35.47;15.02;;;3.20;53.50;;;;;;5052428;28;20041;-68
2021/01/12 10:24:06;;;;;;;24.85;12.35;;;3.10;53.60;;;;;;5052482;28;20025;-68
2021/01/12 10:26:32;;;;;;;25.77;11.95;;;3.20;54.20;;;;;;5052601;28;20033;-68
2021/01/12 10:28:59;;;;;;;19.67;10.25;;;3.20;53.90;;;;;;5052717;28;20029;-68
2021/01/12 10:31:25;;;;;;;22.50;10.35;;;3.20;54.20;;;;;;5052741;28;20447;-68
2021/01/12 10:33:52;;;;;;;13.98;7.40;;;3.30;54.60;;;;;;5052244;28;20021;-70
2021/01/12 10:36:20;;;;;;;15.13;6.97;;;3.40;54.30;;;;;;5052464;28;20033;-68
2021/01/12 10:38:47;;;;;;;12.52;6.70;;;3.50;54.20;;;;;;5052439;28;20376;-68
2021/01/12 10:41:14;;;;;;;12.45;6.40;;;3.50;53.50;;;;;;5052317;28;20071;-68
2021/01/12 10:43:40;;;;;;;12.48;5.78;;;3.40;53.30;;;;;;5052194;28;20357;-69
2021/01/12 10:46:07;;;;;;;17.27;7.50;;;3.40;53.70;;;;;;5051062;28;20057;-69
2021/01/12 10:48:32;;;;;;;12.95;7.18;;;3.40;53.30;;;;;;5052009;28;20079;-69
2021/01/12 10:50:58;;;;;;;14.00;6.80;;;3.40;53.40;;;;;;5051489;28;20083;-69
2021/01/12 10:53:24;;;;;;;10.90;6.63;;;3.40;53.60;;;;;;5052388;28;20031;-69
2021/01/12 10:55:50;;;;;;;10.82;5.82;;;3.40;53.20;;;;;;5050553;28;20017;-69
2021/01/12 10:58:16;;;;;;;11.27;5.88;;;3.20;53.10;;;;;;5052636;28;20288;-69
2021/01/12 11:00:42;;;;;;;15.13;7.78;;;3.10;53.30;;;;;;5052652;28;20024;-68
2021/01/12 11:03:08;;;;;;;12.35;6.07;;;3.00;53.40;;;;;;5052205;28;20072;-68
2021/01/12 11:05:35;;;;;;;10.00;5.63;;;3.00;53.80;;;;;;5041976;28;20029;-68
2021/01/12 11:08:02;;;;;;;14.77;6.97;;;2.90;53.90;;;;;;5040135;28;20063;-69
2021/01/12 11:10:29;;;;;;;13.00;6.78;;;2.90;54.00;;;;;;5049763;28;20104;-71
2021/01/12 11:12:59;;;;;;;12.50;6.15;;;2.90;54.10;;;;;;5035617;28;20471;-67
2021/01/12 11:15:26;;;;;;;14.63;7.25;;;2.80;54.40;;;;;;5042828;28;20070;-68
2021/01/12 11:17:52;;;;;;;26.02;12.57;;;2.70;54.50;;;;;;5046020;28;20159;-68
2021/01/12 11:20:18;;;;;;;12.43;6.18;;;2.60;54.80;;;;;;5042105;28;20021;-67
2021/01/12 11:22:45;;;;;;;10.88;5.75;;;2.60;55.20;;;;;;5039509;28;20372;-69
2021/01/12 11:25:15;;;;;;;9.05;4.97;;;2.60;55.40;;;;;;5044160;28;20041;-68
2021/01/12 11:27:41;;;;;;;17.48;7.63;;;2.60;55.50;;;;;;5043674;28;20083;-67
2021/01/12 11:30:08;;;;;;;12.32;6.13;;;2.50;55.60;;;;;;5041619;28;20025;-67
2021/01/12 11:32:36;;;;;;;12.00;5.85;;;2.50;55.70;;;;;;5038456;28;20045;-68
2021/01/12 11:35:02;;;;;;;8.18;4.82;;;2.30;55.90;;;;;;5037919;28;20034;-67
2021/01/12 11:37:29;;;;;;;23.73;9.85;;;2.30;56.20;;;;;;5043622;28;20037;-66
2021/01/12 11:39:56;;;;;;;13.25;7.45;;;2.10;56.20;;;;;;5045393;28;20033;-67
2021/01/12 11:42:22;;;;;;;9.02;4.93;;;2.10;56.80;;;;;;5041596;28;20044;-69
2021/01/12 11:44:49;;;;;;;9.85;4.75;;;2.10;56.90;;;;;;5043771;28;20025;-67
2021/01/12 11:47:15;;;;;;;9.40;4.93;;;2.00;56.90;;;;;;5045101;28;20083;-67
2021/01/12 11:49:40;;;;;;;12.73;5.80;;;2.00;57.00;;;;;;5052014;28;20360;-68
2021/01/12 11:52:08;;;;;;;9.38;4.88;;;1.90;57.20;;;;;;5041259;28;20087;-67
2021/01/12 11:54:34;;;;;;;16.38;6.53;;;1.80;57.30;;;;;;5042691;28;20063;-67
2021/01/12 11:57:02;;;;;;;8.85;3.90;;;1.80;57.40;;;;;;5051922;28;20090;-67
2021/01/12 11:59:30;;;;;;;7.13;4.03;;;1.80;57.40;;;;;;5041199;28;20031;-66
2021/01/12 12:01:56;;;;;;;8.15;4.80;;;1.80;57.70;;;;;;5046281;28;20475;-68
2021/01/12 12:04:24;;;;;;;6.53;3.78;;;1.80;57.70;;;;;;5043223;28;20029;-66
2021/01/12 12:06:54;;;;;;;9.30;5.40;;;1.70;57.60;;;;;;5044725;28;20025;-66
2021/01/12 12:09:21;;;;;;;11.15;6.28;;;1.70;57.60;;;;;;5042036;28;20025;-67
2021/01/12 12:11:47;;;;;;;10.38;5.65;;;1.60;57.80;;;;;;5043895;28;20518;-67
2021/01/12 12:14:14;;;;;;;8.70;4.65;;;1.50;58.10;;;;;;5052389;28;20024;-67
2021/01/12 12:16:45;;;;;;;9.75;4.75;;;1.50;58.40;;;;;;5045672;28;20060;-67
2021/01/12 12:19:12;;;;;;;13.32;6.53;;;1.50;58.40;;;;;;5061111;28;20452;-67
2021/01/12 12:21:47;;;;;;;10.40;4.97;;;1.50;59.00;;;;;;5044690;28;20481;-66
2021/01/12 12:24:15;;;;;;;20.25;10.25;;;1.50;59.20;;;;;;5049696;28;20037;-70
2021/01/12 12:26:41;;;;;;;17.40;8.65;;;1.50;59.30;;;;;;5048889;28;20095;-69
2021/01/12 12:29:06;;;;;;;12.00;6.93;;;1.50;59.30;;;;;;5046427;28;20108;-65
2021/01/12 12:31:32;;;;;;;17.05;8.02;;;1.50;59.30;;;;;;5046516;28;20099;-67
2021/01/12 12:33:58;;;;;;;13.02;6.63;;;1.50;59.30;;;;;;5042641;28;20128;-66
2021/01/12 12:36:24;;;;;;;13.48;7.65;;;1.40;59.40;;;;;;5050019;28;20033;-68
2021/01/12 12:38:50;;;;;;;18.52;9.40;;;1.40;59.50;;;;;;5047460;28;20032;-67
2021/01/12 12:41:17;;;;;;;14.73;8.20;;;1.40;59.70;;;;;;5050701;28;20411;-67
2021/01/12 12:43:44;;;;;;;19.85;10.02;;;1.30;59.70;;;;;;5050462;28;20080;-68
2021/01/12 12:46:12;;;;;;;16.75;8.07;;;1.40;60.20;;;;;;5040141;28;20044;-67